Alice Springs Airport
YBAS : now visible

Airfield :











YOU CAN JOIN US ON...

 
LOGIN :

Register | Disclaimer

   EN    FR    IT 

 









Legend :    VFR   Marginal VFR   IFR   Intensive IFR   Very Intensive IFR
Visi :
Ceiling :
>= 8 km
>= 3000ft
5 to 8 km
1000 to 3000 ft
1500m to 5 km
500 to 1000 ft
800 to 1500m
200 to 500 ft
< 800m
< 200 ft
Symbols :   Thunderstorms  Fog  Heavy snow  Heavy precipitations  Wind > 20 kt







- Airport Elevation : 1789 ft
- IATA code : ASP


YBAS - Alice Springs

CURRENT METAR :
  • 231400Z AUTO 04007KT 9999 // NCD 31/12 Q1009

EXPIRED METARs :
  • 231330Z AUTO 05010KT 9999 // NCD 32/12 Q1009 RF00.0/000.0
  • 231300Z AUTO 05010KT 9999 // NCD 32/10 Q1009
  • 231230Z AUTO 05007KT 9999 // NCD 30/07 Q1009 RF00.0/000.0
  • 231200Z AUTO 08007KT 9999 // NCD 31/06 Q1009
  • 231130Z AUTO 08008KT 9999 // NCD 32/06 Q1009 RF00.0/000.0

TAF TAF YBAS
Valid from the 23 at 12:00 until the 24 at 12:00 UTC


231122Z 2312/2412 06008KT CAVOK
FM231600 30005KT CAVOK
FM240000 07012KT 9999 SCT050
PROB30
TEMPO 2406/2412 VRB25G40KT 2000 TSRA BKN020 SCT050CB
YMMM FIR / Oceania



MET'MAP, your aeronautical weather chart ! - Copyright ORBIFLY December 2007 - Disclaimer

ORBIFLY MET'MAP TEAM :

Programming & Development : Alexandra Zaïnal
Concept & Development : Baudouin d'Aumeries
Co-Development & Prog : Marc-Olivier Méhu
Technical & hardware support : Manuel Goepfert

Contact : metmap@orbifly.com




SOURCES & CREDITS :

   NOAA       Earth
Advisory